PHTO/ITO METAR and TAF weather

Enter ICAO airport designator
Station Type Date Time Source
PHTO METAR 2022/05/24 12:53 UTC NOAA

PHTO 241253Z AUTO 00000KT 10SM BKN024 BKN037 OVC044 22/20 A3004 RMK AO2 SLP172 T02170200 TSNO


Station Type Date Time Source
PHTO Decoded METAR 2022/05/24 12:53 UTC NOAA

HILO INTERNATIONAL AIRPORT, HI, United States (PHTO) 19-43N 155-03W 12M
May 24, 2022 - 08:53 AM EDT / 2022.05.24 1253 UTC
Wind: Calm:0
Visibility: 10 mile(s):0
Sky conditions: overcast
Temperature: 71.1 F (21.7 C)
Dew Point: 68.0 F (20.0 C)
Relative Humidity: 90%
Pressure (altimeter): 30.04 in. Hg (1017 hPa)
ob: PHTO 241253Z AUTO 00000KT 10SM BKN024 BKN037 OVC044 22/20 A3004 RMK AO2 SLP172 T02170200 TSNO
cycle: 13

Station Type Date Time Source
PHTO TAF 2022/05/24 12:22 UTC NOAA

TAF PHTO 241120Z 2412/2512 23005KT P6SM VCSH SCT025 BKN045
TEMPO 2412/2416 5SM SHRA BKN025
FM242000 06010KT P6SM FEW025 BKN050

Example: see airport list